Time;durP1;ratioP1;P1;durP2;ratioP2;P2;SDS_P1;SDS_P2;PMS_P1;PMS_P2;Temp;Humidity;BMP_temperature;BMP_pressure;BME280_temperature;BME280_humidity;BME280_pressure;Samples;Min_cycle;Max_cycle;Signal;HPM_P1;HPM_P2
2023/08/28 00:01:39;;;;;;;;;3.00;2.00;;;;;18.03;100.00;101108.28;4999212;28;46264;-73
2023/08/28 00:04:05;;;;;;;;;1.00;1.00;;;;;18.01;100.00;101110.09;4997013;28;46164;-73
2023/08/28 00:06:30;;;;;;;;;1.00;1.00;;;;;18.00;100.00;101111.88;4996907;28;45242;-73
2023/08/28 00:08:56;;;;;;;;;3.00;2.00;;;;;18.01;100.00;101102.97;4997141;28;58237;-73
2023/08/28 00:11:21;;;;;;;;;1.67;1.67;;;;;18.05;100.00;101109.13;4997877;28;53454;-73
2023/08/28 00:13:46;;;;;;;;;2.67;2.67;;;;;18.09;100.00;101100.16;4998539;28;68173;-73
2023/08/28 00:16:12;;;;;;;;;2.33;2.00;;;;;18.08;100.00;101097.50;4998510;28;45352;-74
2023/08/28 00:18:37;;;;;;;;;3.00;2.00;;;;;18.10;100.00;101103.72;4999074;28;45420;-73
2023/08/28 00:21:03;;;;;;;;;1.67;1.67;;;;;18.10;100.00;101104.59;4998999;28;45324;-73
2023/08/28 00:23:32;;;;;;;;;4.33;1.33;;;;;18.07;100.00;101099.31;5002014;28;45767;-73
2023/08/28 00:25:57;;;;;;;;;3.33;2.33;;;;;18.06;100.00;101100.22;5000911;28;45446;-73
2023/08/28 00:28:22;;;;;;;;;2.00;2.00;;;;;18.08;100.00;101097.50;5002133;28;45178;-73
2023/08/28 00:30:48;;;;;;;;;2.00;2.00;;;;;18.05;100.00;101098.44;5004449;28;45495;-73
2023/08/28 00:33:13;;;;;;;;;3.00;3.00;;;;;18.02;100.00;101102.03;5003982;28;60554;-73
2023/08/28 00:35:39;;;;;;;;;2.00;2.00;;;;;18.01;100.00;101092.28;5002296;28;45504;-73
2023/08/28 00:38:05;;;;;;;;;4.00;1.00;;;;;18.00;100.00;101093.19;4998452;28;45286;-73
2023/08/28 00:40:30;;;;;;;;;2.33;1.67;;;;;17.99;100.00;101098.53;5001556;28;45352;-73
2023/08/28 00:42:56;;;;;;;;;2.33;2.33;;;;;17.94;100.00;101084.34;4997290;28;65093;-73
2023/08/28 00:45:21;;;;;;;;;2.67;2.00;;;;;17.96;100.00;101088.78;5001790;28;60640;-73
2023/08/28 00:47:47;;;;;;;;;2.00;2.00;;;;;17.94;100.00;101079.88;5002011;28;45578;-73
2023/08/28 00:50:12;;;;;;;;;2.00;2.00;;;;;17.92;100.00;101081.72;5002173;28;45605;-73
2023/08/28 00:52:38;;;;;;;;;2.00;2.00;;;;;17.88;100.00;101081.78;4999278;28;46387;-73
2023/08/28 00:55:04;;;;;;;;;1.00;1.00;;;;;17.86;100.00;101083.59;4981013;28;45617;-74
2023/08/28 00:57:29;;;;;;;;;2.33;2.33;;;;;17.83;100.00;101086.31;5003134;28;46097;-73
2023/08/28 00:59:55;;;;;;;;;4.00;2.00;;;;;17.79;100.00;101078.34;4999519;28;54405;-73
2023/08/28 01:02:21;;;;;;;;;1.00;1.00;;;;;17.76;100.00;101070.38;5002291;28;52223;-74
2023/08/28 01:04:46;;;;;;;;;2.00;2.00;;;;;17.79;100.00;101069.47;5000089;28;45503;-73
2023/08/28 01:07:22;;;;;;;;;3.00;3.00;;;;;17.80;100.00;101073.91;5002538;28;53692;-73
2023/08/28 01:10:09;;;;;;;;;3.00;1.67;;;;;17.78;100.00;101076.56;4998767;28;45268;-74
2023/08/28 01:12:49;;;;;;;;;3.00;3.00;;;;;17.79;100.00;101075.69;5002508;28;48078;-73
2023/08/28 01:15:22;;;;;;;;;2.33;2.00;;;;;17.78;100.00;101073.91;5001733;28;45444;-73
2023/08/28 01:17:51;;;;;;;;;2.00;2.00;;;;;17.78;100.00;101068.56;5002367;28;45331;-74
2023/08/28 01:20:16;;;;;;;;;3.33;2.67;;;;;17.77;100.00;101074.81;4983313;28;45645;-73
2023/08/28 01:22:57;;;;;;;;;2.67;2.67;;;;;17.80;100.00;101074.78;5000765;28;46324;-73
2023/08/28 01:25:26;;;;;;;;;3.33;3.00;;;;;17.83;100.00;101075.63;4998801;28;45353;-74
2023/08/28 01:27:52;;;;;;;;;3.00;3.00;;;;;17.85;100.00;101080.06;4999911;28;45480;-74
2023/08/28 01:30:18;;;;;;;;;4.00;2.33;;;;;17.86;100.00;101075.59;5005148;28;45444;-74
2023/08/28 01:32:45;;;;;;;;;5.00;4.00;;;;;17.91;100.00;101068.41;4999634;28;46507;-73
2023/08/28 01:35:25;;;;;;;;;8.67;5.67;;;;;17.94;100.00;101069.22;4985310;28;45447;-73
2023/08/28 01:38:02;;;;;;;;;8.00;6.00;;;;;17.96;100.00;101066.53;4986483;28;45357;-74
2023/08/28 01:40:39;;;;;;;;;5.00;4.00;;;;;18.00;100.00;101063.78;5004167;28;45258;-73
2023/08/28 01:43:08;;;;;;;;;6.33;4.67;;;;;18.00;100.00;101061.13;5000765;28;47451;-73
2023/08/28 01:45:35;;;;;;;;;4.67;4.67;;;;;18.03;100.00;101046.81;5001503;28;45460;-74
2023/08/28 01:48:01;;;;;;;;;7.33;4.00;;;;;18.06;100.00;101054.78;4999623;28;45472;-73
2023/08/28 01:50:26;;;;;;;;;2.67;2.00;;;;;18.08;100.00;101055.63;5004894;28;45337;-73
2023/08/28 01:52:51;;;;;;;;;3.00;2.00;;;;;18.11;100.00;101052.03;5005042;28;45758;-74
2023/08/28 01:55:33;;;;;;;;;2.67;2.33;;;;;18.15;100.00;101049.28;4999414;28;51384;-73
2023/08/28 01:57:59;;;;;;;;;1.00;1.00;;;;;18.17;100.00;101050.16;4984950;28;45308;-73
2023/08/28 02:00:24;;;;;;;;;1.00;1.00;;;;;18.17;100.00;101050.16;4997595;28;54765;-72
2023/08/28 02:02:49;;;;;;;;;2.00;1.00;;;;;18.20;100.00;101047.41;5002113;28;66750;-74
2023/08/28 02:05:15;;;;;;;;;1.00;1.00;;;;;18.22;100.00;101042.06;5001741;28;52558;-73
2023/08/28 02:07:42;;;;;;;;;1.00;1.00;;;;;18.21;100.00;101045.63;5001942;28;45126;-74
2023/08/28 02:10:07;;;;;;;;;4.00;1.00;;;;;18.17;100.00;101050.16;4998043;28;45520;-73
2023/08/28 02:12:33;;;;;;;;;1.33;1.00;;;;;18.21;100.00;101046.50;5002020;28;45649;-73
2023/08/28 02:14:58;;;;;;;;;4.00;3.00;;;;;18.27;100.00;101051.75;5006910;28;45435;-73
2023/08/28 02:17:23;;;;;;;;;3.00;1.00;;;;;18.27;100.00;101046.41;4999952;28;57214;-73
2023/08/28 02:19:49;;;;;;;;;1.67;1.00;;;;;18.30;100.00;101043.66;5003086;28;56620;-74
2023/08/28 02:22:14;;;;;;;;;1.00;1.00;;;;;18.32;100.00;101051.66;4999576;28;46035;-74
2023/08/28 02:24:39;;;;;;;;;1.00;1.00;;;;;18.29;100.00;101041.03;4979940;28;49993;-73
2023/08/28 02:27:04;;;;;;;;;4.00;1.00;;;;;18.27;100.00;101041.06;4999160;28;57717;-73
2023/08/28 02:29:30;;;;;;;;;2.00;2.00;;;;;18.28;100.00;101040.16;5002357;28;53917;-74
2023/08/28 02:31:55;;;;;;;;;3.00;2.00;;;;;18.26;100.00;101038.41;5000145;28;52720;-73
2023/08/28 02:34:21;;;;;;;;;1.00;1.00;;;;;18.23;100.00;101038.47;4996499;28;45480;-74
2023/08/28 02:36:46;;;;;;;;;1.00;1.00;;;;;18.23;100.00;101039.34;4997175;28;45285;-73
2023/08/28 02:39:12;;;;;;;;;1.33;1.33;;;;;18.21;100.00;101040.28;4996989;28;45338;-73
2023/08/28 02:41:37;;;;;;;;;3.00;1.00;;;;;18.17;100.00;101044.81;4996864;28;46143;-73
2023/08/28 02:44:03;;;;;;;;;2.67;1.33;;;;;18.14;100.00;101055.53;4996433;28;57644;-74
2023/08/28 02:46:28;;;;;;;;;1.00;1.00;;;;;18.12;100.00;101051.13;4997015;28;45481;-72
2023/08/28 02:48:53;;;;;;;;;3.00;2.00;;;;;18.06;100.00;101044.97;5001212;28;48264;-73
2023/08/28 02:51:19;;;;;;;;;4.00;1.00;;;;;18.08;100.00;101042.28;4996365;28;62896;-73
2023/08/28 02:53:44;;;;;;;;;3.00;1.00;;;;;18.06;100.00;101042.31;4996622;28;45496;-73
2023/08/28 02:56:25;;;;;;;;;3.33;1.33;;;;;18.06;100.00;101055.66;4997435;28;45453;-73
2023/08/28 02:58:54;;;;;;;;;1.00;1.00;;;;;18.09;100.00;101056.53;4996477;28;45282;-73
2023/08/28 03:01:20;;;;;;;;;1.00;1.00;;;;;18.04;100.00;101060.13;4997318;28;46963;-73
2023/08/28 03:03:46;;;;;;;;;1.00;1.00;;;;;18.06;100.00;101057.47;4996511;28;45338;-74
2023/08/28 03:06:12;;;;;;;;;3.00;1.33;;;;;18.07;100.00;101064.56;4980820;28;45520;-73
2023/08/28 03:08:37;;;;;;;;;5.00;2.00;;;;;18.03;100.00;101058.38;4997239;28;45379;-72
2023/08/28 03:11:03;;;;;;;;;3.00;1.00;;;;;18.03;100.00;101057.50;4987782;28;67647;-73
2023/08/28 03:13:28;;;;;;;;;2.00;2.00;;;;;18.00;100.00;101057.53;4996374;28;59465;-73
2023/08/28 03:15:53;;;;;;;;;1.33;1.00;;;;;17.99;100.00;101061.13;4995244;28;47815;-73
2023/08/28 03:18:19;;;;;;;;;4.00;2.00;;;;;18.01;100.00;101062.00;4995141;28;45573;-74
2023/08/28 03:20:44;;;;;;;;;4.00;1.00;;;;;17.98;100.00;101068.25;4996280;28;51685;-73
2023/08/28 03:23:09;;;;;;;;;2.00;1.00;;;;;17.97;100.00;101062.94;4996598;28;45443;-73
2023/08/28 03:25:35;;;;;;;;;1.67;1.67;;;;;18.02;100.00;101066.44;4996944;28;51459;-73
2023/08/28 03:28:02;;;;;;;;;1.00;1.00;;;;;17.99;100.00;101069.13;4996510;28;45533;-72
2023/08/28 03:30:27;;;;;;;;;1.33;1.33;;;;;18.00;100.00;101069.13;5001452;28;46388;-74
2023/08/28 03:32:53;;;;;;;;;1.00;1.00;;;;;17.97;100.00;101069.16;4997729;28;45293;-75
2023/08/28 03:35:18;;;;;;;;;1.00;1.00;;;;;17.94;100.00;101073.66;4988576;28;45529;-73
2023/08/28 03:37:44;;;;;;;;;1.00;1.00;;;;;17.90;100.00;101080.88;4996462;28;45409;-73
2023/08/28 03:40:10;;;;;;;;;4.00;2.00;;;;;17.88;100.00;101079.13;4979012;28;45518;-73
2023/08/28 03:42:35;;;;;;;;;1.33;1.00;;;;;17.85;100.00;101069.38;4996502;28;45484;-73
2023/08/28 03:45:01;;;;;;;;;1.00;1.00;;;;;17.87;100.00;101080.03;4996865;28;45980;-73
2023/08/28 03:47:26;;;;;;;;;2.33;1.00;;;;;17.84;100.00;101078.25;4995766;28;45243;-73
2023/08/28 03:49:51;;;;;;;;;1.00;1.00;;;;;17.82;100.00;101079.22;4996506;28;46394;-74
2023/08/28 03:52:17;;;;;;;;;2.00;2.00;;;;;17.82;100.00;101087.22;4996284;28;51832;-74
2023/08/28 03:54:42;;;;;;;;;3.00;1.67;;;;;17.80;100.00;101089.94;4996009;28;46032;-73
2023/08/28 03:57:07;;;;;;;;;1.00;1.00;;;;;17.80;100.00;101085.47;4980099;28;47446;-73
2023/08/28 03:59:33;;;;;;;;;1.00;1.00;;;;;17.73;100.00;101082.88;4996392;28;53073;-72
2023/08/28 04:01:59;;;;;;;;;5.00;1.67;;;;;17.73;100.00;101082.88;4995882;28;45440;-73
2023/08/28 04:04:27;;;;;;;;;1.00;1.00;;;;;17.74;100.00;101090.03;4996787;28;45285;-73
2023/08/28 04:06:52;;;;;;;;;2.00;2.00;;;;;17.76;100.00;101091.75;4996316;28;47180;-73
2023/08/28 04:09:18;;;;;;;;;2.33;1.00;;;;;17.84;100.00;101104.97;4996660;28;45745;-73
2023/08/28 04:11:43;;;;;;;;;3.00;1.00;;;;;17.82;100.00;101101.47;4995990;28;45346;-73
2023/08/28 04:14:08;;;;;;;;;2.33;1.33;;;;;17.85;100.00;101098.75;4996435;28;45734;-73
2023/08/28 04:16:34;;;;;;;;;1.33;1.33;;;;;17.90;100.00;101106.72;4996040;28;45444;-73
2023/08/28 04:18:59;;;;;;;;;4.67;2.33;;;;;17.90;100.00;101107.59;4996075;28;45634;-72
2023/08/28 04:21:25;;;;;;;;;3.00;2.00;;;;;17.92;100.00;101102.22;4993792;28;51587;-73
2023/08/28 04:23:50;;;;;;;;;1.00;1.00;;;;;17.94;100.00;101105.72;4993770;28;50820;-73
2023/08/28 04:26:15;;;;;;;;;1.00;1.00;;;;;17.96;100.00;101096.81;4995715;28;45559;-74
2023/08/28 04:28:41;;;;;;;;;2.00;1.00;;;;;18.01;100.00;101102.09;4999101;28;53156;-73
2023/08/28 04:31:08;;;;;;;;;1.00;1.00;;;;;18.04;100.00;101099.34;4999193;28;58388;-73
2023/08/28 04:33:33;;;;;;;;;0.67;0.67;;;;;18.11;100.00;101101.03;4996040;28;45519;-73
2023/08/28 04:35:59;;;;;;;;;1.33;0.00;;;;;18.09;100.00;101096.59;4996264;28;45513;-73
2023/08/28 04:38:24;;;;;;;;;1.00;1.00;;;;;18.13;100.00;101098.31;4995113;28;58959;-73
2023/08/28 04:40:49;;;;;;;;;1.00;1.00;;;;;18.17;100.00;101100.94;4995400;28;59056;-73
2023/08/28 04:43:15;;;;;;;;;1.67;1.67;;;;;18.16;100.00;101088.44;4995952;28;45444;-74
2023/08/28 04:45:40;;;;;;;;;1.00;1.00;;;;;18.22;100.00;101087.50;4995692;28;45330;-73
2023/08/28 04:48:06;;;;;;;;;2.33;2.33;;;;;18.25;100.00;101090.09;4982570;28;45917;-72
2023/08/28 04:50:31;;;;;;;;;1.00;1.00;;;;;18.29;100.00;101089.16;5001897;28;45445;-73
2023/08/28 04:52:56;;;;;;;;;1.00;1.00;;;;;18.30;100.00;101078.41;4998830;28;60325;-74
2023/08/28 04:55:22;;;;;;;;;1.67;1.67;;;;;18.32;100.00;101081.06;4999875;28;45921;-74
2023/08/28 04:57:47;;;;;;;;;4.33;1.33;;;;;18.32;100.00;101076.63;4999486;28;60986;-73
2023/08/28 05:00:13;;;;;;;;;2.00;1.67;;;;;18.37;100.00;101070.28;4998270;28;57979;-72
2023/08/28 05:02:38;;;;;;;;;3.67;1.00;;;;;18.40;100.00;101072.94;4999532;28;45302;-74
2023/08/28 05:05:04;;;;;;;;;3.00;2.00;;;;;18.40;100.00;101072.94;5000961;28;45395;-74
2023/08/28 05:07:29;;;;;;;;;3.00;1.00;;;;;18.41;100.00;101062.19;4998703;28;45688;-72
2023/08/28 05:09:55;;;;;;;;;1.67;1.67;;;;;18.43;100.00;101062.16;4996808;28;45469;-72
2023/08/28 05:12:20;;;;;;;;;2.00;2.00;;;;;18.44;100.00;101063.94;4997704;28;46797;-74
2023/08/28 05:14:45;;;;;;;;;4.67;2.00;;;;;18.41;100.00;101058.66;4998840;28;45187;-73
2023/08/28 05:17:11;;;;;;;;;2.00;2.00;;;;;18.40;100.00;101065.78;4997773;28;53735;-72
2023/08/28 05:19:36;;;;;;;;;1.00;1.00;;;;;18.40;100.00;101064.91;4997858;28;45597;-74
2023/08/28 05:22:01;;;;;;;;;2.00;0.00;;;;;18.40;100.00;101065.78;4998558;28;45681;-73
2023/08/28 05:24:27;;;;;;;;;2.00;2.00;;;;;18.41;100.00;101070.22;4997996;28;45781;-73
2023/08/28 05:26:52;;;;;;;;;1.67;1.67;;;;;18.39;100.00;101068.50;4998806;28;45505;-72
2023/08/28 05:29:17;;;;;;;;;1.00;1.00;;;;;18.38;100.00;101075.63;4999890;28;45463;-72
2023/08/28 05:31:43;;;;;;;;;2.00;2.00;;;;;18.39;100.00;101081.88;4998345;28;52093;-72
2023/08/28 05:34:08;;;;;;;;;2.00;1.00;;;;;18.37;100.00;101072.97;5001236;28;45340;-72
2023/08/28 05:36:34;;;;;;;;;2.00;2.00;;;;;18.36;100.00;101077.44;4998451;28;45777;-72
2023/08/28 05:38:59;;;;;;;;;1.00;1.00;;;;;18.36;100.00;101077.44;4997803;28;45423;-72
2023/08/28 05:41:24;;;;;;;;;2.00;2.00;;;;;18.36;100.00;101077.44;4998630;28;45326;-72
2023/08/28 05:43:50;;;;;;;;;1.00;1.00;;;;;18.36;100.00;101080.09;4996012;28;57953;-73
2023/08/28 05:46:16;;;;;;;;;3.00;3.00;;;;;18.37;100.00;101076.53;4996218;28;47837;-73
2023/08/28 05:48:41;;;;;;;;;1.33;1.33;;;;;18.37;100.00;101068.50;5000962;28;58754;-71
2023/08/28 05:51:06;;;;;;;;;3.67;2.33;;;;;18.40;100.00;101064.91;4997616;28;48259;-74
2023/08/28 05:53:32;;;;;;;;;1.67;1.67;;;;;18.40;100.00;101071.13;4998676;28;45462;-72
2023/08/28 05:55:57;;;;;;;;;3.00;1.33;;;;;18.38;100.00;101067.63;4985798;28;45661;-72
2023/08/28 05:58:23;;;;;;;;;1.67;1.67;;;;;18.39;100.00;101071.16;4998466;28;45468;-74
2023/08/28 06:00:48;;;;;;;;;1.33;0.00;;;;;18.40;100.00;101067.59;4998650;28;45294;-73
2023/08/28 06:03:13;;;;;;;;;1.00;1.00;;;;;18.41;100.00;101067.53;4997987;28;51063;-72
2023/08/28 06:05:39;;;;;;;;;1.33;1.00;;;;;18.41;100.00;101064.00;4997895;28;53219;-73
2023/08/28 06:08:05;;;;;;;;;1.00;1.00;;;;;18.48;100.00;101062.97;4980341;28;45357;-74
2023/08/28 06:10:31;;;;;;;;;1.33;1.33;;;;;18.46;100.00;101060.31;4998556;28;45273;-72
2023/08/28 06:12:57;;;;;;;;;2.33;2.00;;;;;18.49;100.00;101052.25;4998553;28;45227;-74
2023/08/28 06:15:22;;;;;;;;;3.00;3.00;;;;;18.47;100.00;101055.84;4996558;28;46406;-72
2023/08/28 06:17:50;;;;;;;;;1.00;1.00;;;;;18.46;100.00;101048.75;4998152;28;45357;-72
2023/08/28 06:20:15;;;;;;;;;2.00;2.00;;;;;18.45;100.00;101044.31;4990620;28;45731;-71
2023/08/28 06:22:42;;;;;;;;;4.67;2.00;;;;;18.48;100.00;101049.59;4998867;28;45570;-72
2023/08/28 06:25:08;;;;;;;;;1.67;1.00;;;;;18.46;100.00;101052.31;5000987;28;45463;-72
2023/08/28 06:27:33;;;;;;;;;1.67;1.67;;;;;18.49;100.00;101057.63;4995013;28;45567;-73
2023/08/28 06:29:59;;;;;;;;;4.00;2.00;;;;;18.54;100.00;101057.53;4995512;28;52324;-71
2023/08/28 06:32:24;;;;;;;;;2.33;1.00;;;;;18.56;100.00;101069.06;4996567;28;45436;-71
2023/08/28 06:34:50;;;;;;;;;3.00;1.00;;;;;18.55;100.00;101064.63;4996583;28;46514;-71
2023/08/28 06:37:15;;;;;;;;;4.00;2.33;;;;;18.62;100.00;101068.06;4994818;28;45407;-74
2023/08/28 06:39:40;;;;;;;;;3.00;3.00;;;;;18.65;100.00;101070.72;4995576;28;56742;-73
2023/08/28 06:42:06;;;;;;;;;4.33;3.00;;;;;18.67;100.00;101066.19;4993164;28;45456;-75
2023/08/28 06:44:31;;;;;;;;;3.00;3.00;;;;;18.72;100.00;101064.34;4978400;28;46306;-73
2023/08/28 06:46:56;;;;;;;;;3.00;1.67;;;;;18.80;100.00;101062.41;4995153;28;55918;-72
2023/08/28 06:49:22;;;;;;;;;4.67;3.00;;;;;18.76;100.00;101071.41;4995372;28;45412;-74
2023/08/28 06:51:47;;;;;;;;;2.33;2.33;;;;;18.77;100.00;101065.16;4992834;28;46351;-73
2023/08/28 06:54:12;;;;;;;;;3.33;3.00;;;;;18.77;100.00;101066.03;4995919;28;46501;-73
2023/08/28 06:56:38;;;;;;;;;2.67;2.67;;;;;18.73;100.00;101058.97;4996865;28;45400;-73
2023/08/28 06:59:03;;;;;;;;;3.00;3.00;;;;;18.78;100.00;101062.44;4998882;28;45649;-73
2023/08/28 07:01:29;;;;;;;;;3.67;3.67;;;;;18.83;100.00;101065.03;5005893;28;45208;-73
2023/08/28 07:03:54;;;;;;;;;2.00;2.00;;;;;18.83;100.00;101065.91;4996417;28;61315;-72
2023/08/28 07:06:19;;;;;;;;;3.00;3.00;;;;;18.88;100.00;101065.81;4994235;28;45435;-74
2023/08/28 07:08:45;;;;;;;;;2.00;2.00;;;;;18.94;100.00;101065.69;4995506;28;55574;-72
2023/08/28 07:11:10;;;;;;;;;3.00;3.00;;;;;18.96;100.00;101063.91;4995695;28;45241;-72
2023/08/28 07:13:36;;;;;;;;;3.67;3.67;;;;;19.06;100.00;101054.75;4998408;28;46418;-75
2023/08/28 07:16:01;;;;;;;;;5.67;3.00;;;;;19.17;100.00;101059.88;4977562;28;45447;-74
2023/08/28 07:18:27;;;;;;;;;5.33;4.00;;;;;19.23;100.00;101053.50;4995977;28;45397;-74
2023/08/28 07:20:53;;;;;;;;;4.00;4.00;;;;;19.28;100.00;101051.63;4994014;28;45508;-73
2023/08/28 07:23:18;;;;;;;;;2.00;2.00;;;;;19.31;100.00;101044.41;4978245;28;45746;-72
2023/08/28 07:25:44;;;;;;;;;3.33;3.33;;;;;19.35;100.00;101039.88;4995329;28;52724;-73
2023/08/28 07:28:10;;;;;;;;;2.00;2.00;;;;;19.38;100.00;101042.47;4995493;28;45375;-73
2023/08/28 07:30:36;;;;;;;;;4.00;4.00;;;;;19.45;100.00;101046.78;4979590;28;45471;-72
2023/08/28 07:33:01;;;;;;;;;5.00;5.00;;;;;19.50;100.00;101042.22;4994420;28;45644;-72
2023/08/28 07:35:29;;;;;;;;;4.00;4.00;;;;;19.59;100.00;101047.38;4996483;28;45495;-74
2023/08/28 07:37:54;;;;;;;;;2.67;2.67;;;;;19.67;100.00;101049.03;4994646;28;45472;-73
2023/08/28 07:40:19;;;;;;;;;3.67;3.67;;;;;19.75;100.00;101050.59;4999589;28;45466;-73
2023/08/28 07:42:45;;;;;;;;;4.00;4.00;;;;;19.79;100.00;101036.22;4996241;28;45722;-74
2023/08/28 07:47:40;;;;;;;;;4.33;4.33;;;;;19.98;100.00;101038.47;4990479;28;45358;-71
2023/08/28 07:50:05;;;;;;;;;6.00;4.67;;;;;20.01;100.00;101036.56;4988360;28;51282;-71
2023/08/28 07:52:31;;;;;;;;;3.00;3.00;;;;;20.02;100.00;101041.00;4984552;28;46765;-74
2023/08/28 07:54:56;;;;;;;;;4.00;4.00;;;;;19.94;100.00;101045.69;4992348;28;58918;-73
2023/08/28 07:57:23;;;;;;;;;5.00;5.00;;;;;19.90;100.00;101041.31;4991422;28;45390;-73
2023/08/28 07:59:48;;;;;;;;;4.67;4.67;;;;;19.95;100.00;101046.56;4989083;28;45512;-76
2023/08/28 08:02:14;;;;;;;;;5.00;4.00;;;;;20.02;100.00;101049.03;4995224;28;45583;-72
2023/08/28 08:04:39;;;;;;;;;3.00;3.00;;;;;20.11;100.00;101045.25;4988390;28;45544;-73
2023/08/28 08:07:05;;;;;;;;;5.33;4.00;;;;;20.21;100.00;101044.13;4992377;28;56889;-74
2023/08/28 08:09:30;;;;;;;;;5.00;3.00;;;;;20.23;100.00;101044.94;4987130;28;46064;-71
2023/08/28 08:11:55;;;;;;;;;4.67;3.00;;;;;20.29;100.00;101051.94;4991355;28;62871;-72
2023/08/28 08:14:22;;;;;;;;;4.00;4.00;;;;;20.35;100.00;101052.69;4971538;28;45517;-72
2023/08/28 08:16:47;;;;;;;;;3.00;3.00;;;;;20.42;100.00;101054.28;4992123;28;46304;-72
2023/08/28 08:19:12;;;;;;;;;2.00;2.00;;;;;20.50;100.00;101053.22;4986469;28;45467;-74
2023/08/28 08:21:38;;;;;;;;;2.67;2.67;;;;;20.59;100.00;101053.88;4990813;28;46263;-74
2023/08/28 08:24:03;;;;;;;;;4.33;3.33;;;;;20.69;100.00;101053.63;4998053;28;49275;-72
2023/08/28 08:26:29;;;;;;;;;3.33;3.33;;;;;20.73;100.00;101055.31;4979444;28;45422;-72
2023/08/28 08:28:54;;;;;;;;;3.00;3.00;;;;;20.83;100.00;101065.75;4964055;28;45463;-72
2023/08/28 08:31:20;;;;;;;;;3.00;3.00;;;;;20.92;100.00;101049.38;4996724;28;45735;-71
2023/08/28 08:33:45;;;;;;;;;3.67;3.67;;;;;21.00;100.00;101046.50;4983937;28;45476;-73
2023/08/28 08:36:14;;;;;;;;;2.33;2.33;;;;;21.09;100.00;101050.69;4996913;28;47586;-75
2023/08/28 08:38:39;;;;;;;;;2.00;2.00;;;;;21.17;100.00;101046.00;4980466;28;45706;-73
2023/08/28 08:41:06;;;;;;;;;1.00;1.00;;;;;21.26;100.00;101051.09;4976831;28;45560;-72
2023/08/28 08:43:32;;;;;;;;;4.67;3.67;;;;;21.22;100.00;101052.09;4992584;28;45626;-72
2023/08/28 08:46:07;;;;;;;;;5.33;3.33;;;;;21.26;100.00;101050.22;4999662;28;45692;-75
2023/08/28 08:48:36;;;;;;;;;4.33;3.00;;;;;21.29;100.00;101055.50;5013420;28;45271;-75
2023/08/28 08:51:04;;;;;;;;;3.33;3.33;;;;;21.39;100.00;101057.00;5012921;28;47596;-72
2023/08/28 08:53:49;;;;;;;;;6.00;4.00;;;;;21.54;100.00;101056.53;5014678;28;45427;-71
2023/08/28 08:56:17;;;;;;;;;4.33;3.33;;;;;21.66;100.00;101057.97;5014181;28;45527;-72
2023/08/28 08:58:43;;;;;;;;;2.00;2.00;;;;;21.72;100.00;101052.41;5011871;28;45583;-72
2023/08/28 09:01:09;;;;;;;;;6.67;2.33;;;;;21.74;100.00;101053.25;5011862;28;47014;-73
2023/08/28 09:03:35;;;;;;;;;1.33;1.33;;;;;21.65;100.00;101051.72;5012516;28;45463;-75
2023/08/28 09:06:01;;;;;;;;;4.00;3.00;;;;;21.56;100.00;101048.44;5014420;28;45376;-73
2023/08/28 09:08:28;;;;;;;;;5.33;1.67;;;;;21.51;100.00;101050.38;5016278;28;46260;-72
2023/08/28 09:10:57;;;;;;;;;3.33;3.33;;;;;21.56;100.00;101051.13;5013118;28;45511;-73
2023/08/28 09:13:23;;;;;;;;;2.67;2.67;;;;;21.61;100.00;101050.03;5012038;28;45359;-73
2023/08/28 09:15:48;;;;;;;;;2.00;2.00;;;;;21.71;100.00;101042.56;5016228;28;51061;-73
2023/08/28 09:18:14;;;;;;;;;3.33;3.33;;;;;21.80;100.00;101038.72;5016296;28;45540;-74
2023/08/28 09:20:39;;;;;;;;;2.33;2.33;;;;;21.87;100.00;101043.84;4995525;28;54973;-73
2023/08/28 09:23:04;;;;;;;;;2.33;2.33;;;;;21.97;100.00;101045.31;5016149;28;45477;-75
2023/08/28 09:25:31;;;;;;;;;3.67;2.00;;;;;22.14;100.00;101033.13;5013308;28;47694;-73
2023/08/28 09:27:56;;;;;;;;;2.00;2.00;;;;;22.30;100.00;101044.25;5011816;28;48607;-73
2023/08/28 09:30:29;;;;;;;;;2.00;2.00;;;;;22.39;100.00;101038.56;5014485;28;46191;-74
2023/08/28 09:33:00;;;;;;;;;5.00;3.33;;;;;22.43;100.00;101037.53;5020775;28;45334;-73
2023/08/28 09:35:36;;;;;;;;;2.00;2.00;;;;;22.45;100.00;101033.84;5015365;28;45420;-73
2023/08/28 09:38:01;;;;;;;;;5.33;3.00;;;;;22.45;100.00;101033.84;5018396;28;45354;-74
2023/08/28 09:40:35;;;;;;;;;2.67;2.67;;;;;22.38;100.00;101037.69;5017660;28;45608;-74
2023/08/28 09:43:02;;;;;;;;;3.00;2.00;;;;;22.30;100.00;101041.56;5016405;28;45584;-76
2023/08/28 09:45:32;;;;;;;;;2.33;2.33;;;;;22.12;100.00;101045.78;4995728;28;45476;-73
2023/08/28 09:47:57;;;;;;;;;3.67;3.67;;;;;21.96;100.00;101048.06;4999488;28;45499;-73
2023/08/28 09:50:29;;;;;;;;;5.33;4.00;;;;;21.77;100.00;101050.44;5015154;28;45285;-72
2023/08/28 09:53:05;;;;;;;;;4.00;4.00;;;;;21.65;100.00;101051.72;5009891;28;45628;-72
2023/08/28 09:55:30;;;;;;;;;4.67;4.67;;;;;21.63;100.00;101058.09;5016880;28;45737;-73
2023/08/28 09:57:56;;;;;;;;;5.00;5.00;;;;;21.67;100.00;101055.22;5020248;28;53302;-72
2023/08/28 10:00:21;;;;;;;;;4.00;4.00;;;;;21.72;100.00;101047.03;4981657;28;46454;-74
2023/08/28 10:02:47;;;;;;;;;5.33;4.00;;;;;21.80;100.00;101053.03;5013869;28;46556;-72
2023/08/28 10:05:14;;;;;;;;;2.67;2.67;;;;;21.93;100.00;101053.50;5016142;28;45472;-73
2023/08/28 10:07:41;;;;;;;;;4.00;3.00;;;;;22.07;100.00;101050.38;5015920;28;45945;-71
2023/08/28 10:10:10;;;;;;;;;4.00;4.00;;;;;22.23;100.00;101049.84;5016085;28;46573;-71
2023/08/28 10:12:37;;;;;;;;;6.67;5.00;;;;;22.43;100.00;101051.00;5016545;28;45369;-72
2023/08/28 10:15:04;;;;;;;;;7.00;6.00;;;;;22.47;100.00;101053.50;4999813;28;45466;-72
2023/08/28 10:17:32;;;;;;;;;4.00;4.00;;;;;22.61;100.00;101047.66;4998267;28;45544;-72
2023/08/28 10:19:58;;;;;;;;;5.00;3.33;;;;;22.68;100.00;101046.47;4997542;28;54104;-72
2023/08/28 10:22:25;;;;;;;;;4.00;4.00;;;;;22.78;100.00;101052.44;5021054;28;45538;-71
2023/08/28 10:24:51;;;;;;;;;3.00;3.00;;;;;22.89;100.00;101049.38;5016477;28;45403;-71
2023/08/28 10:27:17;;;;;;;;;5.00;3.67;;;;;23.02;100.00;101044.44;5017204;28;45477;-72
2023/08/28 10:29:46;;;;;;;;;3.00;3.00;;;;;23.12;100.00;101040.47;4997617;28;59013;-73
2023/08/28 10:32:12;;;;;;;;;2.33;2.00;;;;;23.22;100.00;101044.53;5015253;28;45588;-71
2023/08/28 10:34:42;;;;;;;;;4.00;4.00;;;;;23.38;100.00;101042.13;4999055;28;45374;-70
2023/08/28 10:37:11;;;;;;;;;5.00;3.67;;;;;23.51;100.00;101041.59;5017189;28;45362;-72
2023/08/28 10:39:43;;;;;;;;;5.00;2.00;;;;;23.62;100.00;101040.31;5014472;28;47534;-72
2023/08/28 10:42:09;;;;;;;;;3.33;3.00;;;;;23.70;100.00;101048.97;5013096;28;45385;-71
2023/08/28 10:44:36;;;;;;;;;3.00;3.00;;;;;23.67;100.00;101047.31;5012345;28;45547;-72
2023/08/28 10:47:01;;;;;;;;;3.00;3.00;;;;;23.72;100.00;101041.75;4994790;28;45518;-71
2023/08/28 10:49:27;;;;;;;;;2.67;2.67;;;;;23.72;100.00;101041.75;4997051;28;46398;-70
2023/08/28 10:52:00;;;;;;;;;3.33;3.33;;;;;23.73;100.00;101032.69;4996603;28;45474;-70
2023/08/28 10:54:36;;;;;;;;;4.00;4.00;;;;;23.76;100.00;101037.97;4998040;28;45285;-72
2023/08/28 10:57:05;;;;;;;;;2.00;2.00;;;;;23.78;100.00;101042.34;5001997;28;45590;-73
2023/08/28 10:59:44;;;;;;;;;4.00;3.00;;;;;23.74;100.00;101038.03;4987701;28;47458;-71
2023/08/28 11:02:09;;;;;;;;;1.67;1.67;;;;;23.71;100.00;101045.38;4991222;28;45471;-71
2023/08/28 11:04:37;;;;;;;;;3.00;3.00;;;;;23.63;100.00;101047.47;4997521;28;45364;-73
2023/08/28 11:07:03;;;;;;;;;3.00;3.00;;;;;23.61;100.00;101038.56;4996803;28;45667;-73
2023/08/28 11:09:28;;;;;;;;;3.00;3.00;;;;;23.60;100.00;101048.47;4997496;28;46323;-72
2023/08/28 11:11:57;;;;;;;;;3.00;3.00;;;;;23.67;100.00;101044.59;4996875;28;45376;-72
2023/08/28 11:14:22;;;;;;;;;5.00;3.67;;;;;23.69;100.00;101044.53;4996639;28;45372;-71
2023/08/28 11:16:47;;;;;;;;;4.33;3.00;;;;;23.66;100.00;101037.47;4995566;28;45440;-71